Time,TemperatureF,DewpointF,PressureIn,WindDirection,WindDirectionDegrees,WindSpeedMPH,WindSpeedGustMPH,Humidity,HourlyPrecipIn,Conditions,Clouds,dailyrainin,SoftwareType,DateUTC
2013-07-24 00:08:00,68.3,59.0,29.68,West,261,1.0,-999.0,72,-99.99,,,0.00,weatherlink.com 1.10,2013-07-24 04:08:00,
2013-07-24 00:23:00,68.1,59.0,29.69,SSE,159,0.0,-999.0,72,-99.99,,,0.00,weatherlink.com 1.10,2013-07-24 04:23:00,
2013-07-24 00:38:00,67.9,59.0,29.69,WSW,239,0.0,-999.0,72,-99.99,,,0.00,weatherlink.com 1.10,2013-07-24 04:38:00,
2013-07-24 00:54:00,67.7,59.0,29.69,WSW,254,1.0,-999.0,73,-99.99,,,0.00,weatherlink.com 1.10,2013-07-24 04:54:00,
2013-07-24 01:09:00,67.4,58.0,29.70,SW,217,3.0,-999.0,73,-99.99,,,0.00,weatherlink.com 1.10,2013-07-24 05:09:00,
2013-07-24 01:24:00,66.9,58.0,29.69,SW,229,3.0,-999.0,72,-99.99,,,0.00,weatherlink.com 1.10,2013-07-24 05:24:00,
2013-07-24 01:39:00,66.8,57.0,29.69,SW,234,6.0,-999.0,72,-99.99,,,0.00,weatherlink.com 1.10,2013-07-24 05:39:00,
2013-07-24 01:54:00,66.8,57.0,29.70,SW,214,0.0,-999.0,72,-99.99,,,0.00,weatherlink.com 1.10,2013-07-24 05:54:00,
2013-07-24 02:09:00,66.6,57.0,29.70,WSW,243,8.0,-999.0,72,-99.99,,,0.00,weatherlink.com 1.10,2013-07-24 06:09:00,
2013-07-24 02:24:00,66.4,57.0,29.70,SW,233,3.0,-999.0,72,-99.99,,,0.00,weatherlink.com 1.10,2013-07-24 06:24:00,
2013-07-24 02:39:00,66.1,58.0,29.71,SW,218,2.0,-999.0,74,-99.99,,,0.00,weatherlink.com 1.10,2013-07-24 06:39:00,
2013-07-24 02:54:00,65.8,58.0,29.71,SSW,213,0.0,-999.0,75,-99.99,,,0.00,weatherlink.com 1.10,2013-07-24 06:54:00,
2013-07-24 03:09:00,65.6,58.0,29.72,SW,216,0.0,-999.0,76,-99.99,,,0.00,weatherlink.com 1.10,2013-07-24 07:09:00,
2013-07-24 03:24:00,65.1,58.0,29.72,SSW,194,1.0,-999.0,78,-99.99,,,0.00,weatherlink.com 1.10,2013-07-24 07:24:00,
2013-07-24 03:39:00,64.7,58.0,29.72,WSW,247,5.0,-999.0,78,-99.99,,,0.00,weatherlink.com 1.10,2013-07-24 07:39:00,
2013-07-24 03:54:00,64.1,58.0,29.72,SSW,197,5.0,-999.0,80,-99.99,,,0.00,weatherlink.com 1.10,2013-07-24 07:54:00,
2013-07-24 04:09:00,63.8,58.0,29.73,SW,219,0.0,-999.0,81,-99.99,,,0.00,weatherlink.com 1.10,2013-07-24 08:09:00,
2013-07-24 04:24:00,63.7,58.0,29.73,SW,229,2.0,-999.0,81,-99.99,,,0.00,weatherlink.com 1.10,2013-07-24 08:24:00,
2013-07-24 04:39:00,63.6,58.0,29.73,SW,224,0.0,-999.0,82,-99.99,,,0.00,weatherlink.com 1.10,2013-07-24 08:39:00,
2013-07-24 04:54:00,63.6,58.0,29.74,SW,221,3.0,-999.0,82,-99.99,,,0.00,weatherlink.com 1.10,2013-07-24 08:54:00,
2013-07-24 05:09:00,63.8,57.0,29.74,West,264,3.0,-999.0,79,-99.99,,,0.00,weatherlink.com 1.10,2013-07-24 09:09:00,
2013-07-24 05:24:00,63.4,55.0,29.75,SW,236,7.0,-999.0,75,-99.99,,,0.00,weatherlink.com 1.10,2013-07-24 09:24:00,
2013-07-24 05:39:00,63.1,54.0,29.76,SSW,206,6.0,-999.0,73,-99.99,,,0.00,weatherlink.com 1.10,2013-07-24 09:39:00,
2013-07-24 05:54:00,62.8,54.0,29.76,WSW,248,5.0,-999.0,72,-99.99,,,0.00,weatherlink.com 1.10,2013-07-24 09:54:00,
2013-07-24 06:09:00,62.4,53.0,29.77,WSW,253,0.0,-999.0,72,-99.99,,,0.00,weatherlink.com 1.10,2013-07-24 10:09:00,
2013-07-24 06:24:00,61.7,53.0,29.78,North,355,4.0,-999.0,72,-99.99,,,0.00,weatherlink.com 1.10,2013-07-24 10:24:00,
2013-07-24 06:39:00,61.1,52.0,29.79,SW,227,6.0,-999.0,73,-99.99,,,0.00,weatherlink.com 1.10,2013-07-24 10:39:00,
2013-07-24 06:54:00,60.3,52.0,29.80,SW,227,5.0,-999.0,73,-99.99,,,0.00,weatherlink.com 1.10,2013-07-24 10:54:00,
2013-07-24 07:09:00,59.9,52.0,29.80,WSW,242,5.0,-999.0,74,-99.99,,,0.00,weatherlink.com 1.10,2013-07-24 11:09:00,
2013-07-24 07:24:00,59.7,51.0,29.81,West,269,1.0,-999.0,74,-99.99,,,0.00,weatherlink.com 1.10,2013-07-24 11:24:00,
2013-07-24 07:39:00,59.7,51.0,29.82,NNW,348,0.0,-999.0,74,-99.99,,,0.00,weatherlink.com 1.10,2013-07-24 11:39:00,
2013-07-24 07:55:00,59.5,51.0,29.83,SW,217,5.0,-999.0,73,-99.99,,,0.00,weatherlink.com 1.10,2013-07-24 11:55:00,
2013-07-24 08:10:00,59.4,51.0,29.84,WSW,252,6.0,-999.0,74,-99.99,,,0.00,weatherlink.com 1.10,2013-07-24 12:10:00,
2013-07-24 08:25:00,59.5,51.0,29.84,WSW,250,3.0,-999.0,73,-99.99,,,0.00,weatherlink.com 1.10,2013-07-24 12:25:00,
2013-07-24 08:40:00,59.6,51.0,29.85,WSW,252,1.0,-999.0,74,-99.99,,,0.00,weatherlink.com 1.10,2013-07-24 12:40:00,
2013-07-24 08:55:00,59.5,51.0,29.86,WNW,285,5.0,-999.0,73,-99.99,,,0.00,weatherlink.com 1.10,2013-07-24 12:55:00,
2013-07-24 09:10:00,59.4,51.0,29.86,West,259,3.0,-999.0,73,-99.99,,,0.00,weatherlink.com 1.10,2013-07-24 13:10:00,
2013-07-24 09:25:00,59.5,50.0,29.87,SW,232,8.0,-999.0,72,-99.99,,,0.00,weatherlink.com 1.10,2013-07-24 13:25:00,
2013-07-24 09:40:00,60.0,51.0,29.87,WSW,250,4.0,-999.0,73,-99.99,,,0.00,weatherlink.com 1.10,2013-07-24 13:40:00,
2013-07-24 09:55:00,59.7,51.0,29.89,SW,221,3.0,-999.0,72,-99.99,,,0.00,weatherlink.com 1.10,2013-07-24 13:55:00,
2013-07-24 10:10:00,59.8,52.0,29.89,West,275,0.0,-999.0,74,-99.99,,,0.00,weatherlink.com 1.10,2013-07-24 14:10:00,
2013-07-24 10:25:00,60.0,51.0,29.89,SW,233,3.0,-999.0,73,-99.99,,,0.00,weatherlink.com 1.10,2013-07-24 14:25:00,
2013-07-24 10:40:00,60.0,51.0,29.91,West,267,4.0,-999.0,73,-99.99,,,0.00,weatherlink.com 1.10,2013-07-24 14:40:00,
2013-07-24 10:55:00,59.8,51.0,29.92,WNW,295,3.0,-999.0,72,-99.99,,,0.00,weatherlink.com 1.10,2013-07-24 14:55:00,
2013-07-24 11:10:00,59.4,51.0,29.92,West,273,2.0,-999.0,73,-99.99,,,0.00,weatherlink.com 1.10,2013-07-24 15:10:00,
2013-07-24 11:25:00,59.5,51.0,29.92,WNW,286,0.0,-999.0,73,-99.99,,,0.00,weatherlink.com 1.10,2013-07-24 15:25:00,
2013-07-24 11:40:00,59.8,51.0,29.93,WSW,237,3.0,-999.0,72,-99.99,,,0.00,weatherlink.com 1.10,2013-07-24 15:40:00,
2013-07-24 11:55:00,60.5,51.0,29.93,South,188,2.0,-999.0,70,-99.99,,,0.00,weatherlink.com 1.10,2013-07-24 15:55:00,
2013-07-24 12:10:00,60.3,51.0,29.94,SSW,209,5.0,-999.0,71,-99.99,,,0.00,weatherlink.com 1.10,2013-07-24 16:10:00,
2013-07-24 12:25:00,60.5,51.0,29.95,SW,236,6.0,-999.0,72,-99.99,,,0.00,weatherlink.com 1.10,2013-07-24 16:25:00,
2013-07-24 12:40:00,60.5,51.0,29.95,SSW,213,2.0,-999.0,71,-99.99,,,0.00,weatherlink.com 1.10,2013-07-24 16:40:00,
2013-07-24 12:55:00,61.4,52.0,29.95,SSW,194,0.0,-999.0,70,-99.99,,,0.00,weatherlink.com 1.10,2013-07-24 16:55:00,
2013-07-24 13:10:00,61.7,51.0,29.95,SW,234,0.0,-999.0,69,-99.99,,,0.00,weatherlink.com 1.10,2013-07-24 17:10:00,
2013-07-24 13:25:00,62.2,51.0,29.95,WNW,301,3.0,-999.0,67,-99.99,,,0.00,weatherlink.com 1.10,2013-07-24 17:25:00,
2013-07-24 13:40:00,61.5,52.0,29.95,SSW,201,4.0,-999.0,71,-99.99,,,0.00,weatherlink.com 1.10,2013-07-24 17:40:00,
2013-07-24 13:55:00,61.4,52.0,29.95,WSW,244,0.0,-999.0,70,-99.99,,,0.00,weatherlink.com 1.10,2013-07-24 17:55:00,
2013-07-24 14:10:00,61.7,51.0,29.95,NE,39,1.0,-999.0,69,-99.99,,,0.00,weatherlink.com 1.10,2013-07-24 18:10:00,
2013-07-24 14:25:00,63.1,51.0,29.95,West,275,6.0,-999.0,64,-99.99,,,0.00,weatherlink.com 1.10,2013-07-24 18:25:00,
2013-07-24 14:40:00,63.4,50.0,29.95,SW,219,4.0,-999.0,62,-99.99,,,0.00,weatherlink.com 1.10,2013-07-24 18:40:00,
2013-07-24 14:55:00,64.1,49.0,29.95,WNW,296,3.0,-999.0,58,-99.99,,,0.00,weatherlink.com 1.10,2013-07-24 18:55:00,
2013-07-24 15:10:00,63.5,49.0,29.95,WNW,292,1.0,-999.0,60,-99.99,,,0.00,weatherlink.com 1.10,2013-07-24 19:10:00,
2013-07-24 15:25:00,63.8,49.0,29.95,NW,310,10.0,-999.0,60,-99.99,,,0.00,weatherlink.com 1.10,2013-07-24 19:25:00,
2013-07-24 15:40:00,63.4,49.0,29.96,WSW,256,5.0,-999.0,60,-99.99,,,0.00,weatherlink.com 1.10,2013-07-24 19:40:00,
2013-07-24 15:55:00,63.9,49.0,29.96,West,277,0.0,-999.0,59,-99.99,,,0.00,weatherlink.com 1.10,2013-07-24 19:55:00,
2013-07-24 16:10:00,64.4,49.0,29.96,West,278,2.0,-999.0,58,-99.99,,,0.00,weatherlink.com 1.10,2013-07-24 20:10:00,
2013-07-24 16:25:00,65.2,49.0,29.96,NW,304,5.0,-999.0,56,-99.99,,,0.00,weatherlink.com 1.10,2013-07-24 20:25:00,
2013-07-24 16:40:00,64.8,49.0,29.97,West,266,4.0,-999.0,58,-99.99,,,0.00,weatherlink.com 1.10,2013-07-24 20:40:00,
2013-07-24 16:55:00,64.7,49.0,29.97,NW,310,0.0,-999.0,57,-99.99,,,0.00,weatherlink.com 1.10,2013-07-24 20:55:00,
2013-07-24 17:10:00,65.8,49.0,29.97,West,265,0.0,-999.0,55,-99.99,,,0.00,weatherlink.com 1.10,2013-07-24 21:10:00,
2013-07-24 17:25:00,65.9,49.0,29.97,West,269,1.0,-999.0,54,-99.99,,,0.00,weatherlink.com 1.10,2013-07-24 21:25:00,
2013-07-24 17:40:00,66.8,49.0,29.97,WSW,239,2.0,-999.0,54,-99.99,,,0.00,weatherlink.com 1.10,2013-07-24 21:40:00,
2013-07-24 17:56:00,66.6,49.0,29.97,NNW,331,2.0,-999.0,53,-99.99,,,0.00,weatherlink.com 1.10,2013-07-24 21:56:00,
2013-07-24 18:11:00,66.7,49.0,29.97,North,360,6.0,-999.0,54,-99.99,,,0.00,weatherlink.com 1.10,2013-07-24 22:11:00,
2013-07-24 18:26:00,66.8,50.0,29.97,NW,319,3.0,-999.0,56,-99.99,,,0.00,weatherlink.com 1.10,2013-07-24 22:26:00,
2013-07-24 18:41:00,66.0,50.0,29.97,WNW,290,0.0,-999.0,56,-99.99,,,0.00,weatherlink.com 1.10,2013-07-24 22:41:00,
2013-07-24 18:56:00,65.7,49.0,29.98,NW,315,6.0,-999.0,56,-99.99,,,0.00,weatherlink.com 1.10,2013-07-24 22:56:00,
2013-07-24 19:11:00,66.5,50.0,29.98,NNW,329,2.0,-999.0,55,-99.99,,,0.00,weatherlink.com 1.10,2013-07-24 23:11:00,
2013-07-24 19:26:00,66.1,50.0,29.98,WNW,301,0.0,-999.0,56,-99.99,,,0.00,weatherlink.com 1.10,2013-07-24 23:26:00,
2013-07-24 19:41:00,66.8,51.0,29.98,WNW,301,0.0,-999.0,57,-99.99,,,0.00,weatherlink.com 1.10,2013-07-24 23:41:00,
2013-07-24 19:56:00,66.7,52.0,29.99,WNW,301,0.0,-999.0,60,-99.99,,,0.00,weatherlink.com 1.10,2013-07-24 23:56:00,
2013-07-24 20:11:00,64.9,52.0,29.99,WNW,301,0.0,-999.0,64,-99.99,,,0.00,weatherlink.com 1.10,2013-07-25 00:11:00,
2013-07-24 20:26:00,62.7,52.0,29.99,WNW,301,0.0,-999.0,68,-99.99,,,0.00,weatherlink.com 1.10,2013-07-25 00:26:00,
2013-07-24 20:41:00,61.2,52.0,29.99,WNW,301,0.0,-999.0,72,-99.99,,,0.00,weatherlink.com 1.10,2013-07-25 00:41:00,
2013-07-24 20:56:00,59.5,52.0,30.00,WNW,301,0.0,-999.0,76,-99.99,,,0.00,weatherlink.com 1.10,2013-07-25 00:56:00,
2013-07-24 21:11:00,58.4,52.0,30.00,WNW,301,0.0,-999.0,79,-99.99,,,0.00,weatherlink.com 1.10,2013-07-25 01:11:00,
2013-07-24 21:56:00,56.3,52.0,30.01,WNW,301,0.0,-999.0,86,-99.99,,,0.00,weatherlink.com 1.10,2013-07-25 01:56:00,
2013-07-24 22:11:00,56.1,52.0,30.02,WNW,301,0.0,-999.0,87,-99.99,,,0.00,weatherlink.com 1.10,2013-07-25 02:11:00,
2013-07-24 22:26:00,55.8,52.0,30.02,WNW,301,0.0,-999.0,86,-99.99,,,0.00,weatherlink.com 1.10,2013-07-25 02:26:00,
2013-07-24 22:41:00,55.3,52.0,30.03,WNW,301,0.0,-999.0,87,-99.99,,,0.00,weatherlink.com 1.10,2013-07-25 02:41:00,
2013-07-24 22:56:00,55.0,52.0,30.03,WNW,301,0.0,-999.0,89,-99.99,,,0.00,weatherlink.com 1.10,2013-07-25 02:56:00,
2013-07-24 23:11:00,54.8,52.0,30.03,WNW,301,0.0,-999.0,89,-99.99,,,0.00,weatherlink.com 1.10,2013-07-25 03:11:00,
2013-07-24 23:41:00,54.4,52.0,30.04,WNW,301,0.0,-999.0,91,-99.99,,,0.00,weatherlink.com 1.10,2013-07-25 03:41:00,
2013-07-24 23:56:00,54.1,52.0,30.05,WNW,301,0.0,-999.0,91,-99.99,,,0.00,weatherlink.com 1.10,2013-07-25 03:56:00,